Destin, FL

10:09 AM CDT on July 27, 2016 (GMT -0500)
LaRoux Point Boggy Bayou | | Change Station
Active Advisory: Coastal Hazard Statement

Elev 15 ft 30.50 °N, 86.49 °W | Updated 7 minutes ago

Clear
Clear
86.1 °F
Feels Like 95 °F
N
10.0
Wind Variable Wind from SSE
Gusts 15.0 mph

Today
High -- | Low -- °F
--% Chance of Precip.
Yesterday
High -- | Low -- °F
Precip. -- in
Pressure 30.07 in
Visibility 10.0 miles
Clouds Clear
Heat Index 95 °F
Dew Point 75 °F
Humidity 69%
Rainfall 0.00 in
Snow Depth Not available.
6:01 AM 7:43 PM
Last Quarter, 42% visible
METAR KDTS 271453Z AUTO 20005KT 10SM CLR 33/24 A3007 RMK AO2 SLP182 T03280244 51010 TSNO
Pressure 30.07 in
Visibility 10.0 miles
Clouds Clear
Heat Index 95 °F
Dew Point 75 °F
Humidity 69%
Rainfall 0.00 in
Snow Depth Not available.
6:01 AM 7:43 PM
Last Quarter, 42% visible
METAR KDTS 271453Z AUTO 20005KT 10SM CLR 33/24 A3007 RMK AO2 SLP182 T03280244 51010 TSNO

10-Day Weather Forecast

Almanac

Astronomy

Jul. 27, 2016 Rise Set
Actual Time
Civil Twilight
Nautical Twilight
Astronomical Twilight
Moon
Length of Visible Light
Length of Day
Tomorrow will be .
, % of the Moon is Illuminated

Today's Extremes

State Highs State Lows

Community

WunderPhotos

Upload Photos

1,927,858 photos uploaded!

WunderBlog® & News

Nearby

Air Quality

  Air Quality AQ Index Pollutant
Not available.

Snow Depth

Station Depth Elevation

Earthquake Activity

City Distance Mag. Time & Date
Minimum magnitude displayed is 2.5.

Coastal Water Temperatures

Place Temperature

Stations

Nearby Weather Stations

Station Location Temp. Windchill Dew Point Humidity Wind Precip. Elev Updated Type
                   

Watches & Warnings

Coastal Hazard Statement
Issued: 5:46 AM CDT Jul. 27, 2016 – National Weather Service

... High rip current risk now in effect through this afternoon...

* timing... through late this afternoon.

* Impacts... frequent life-threatening rip currents are expected.
The surf is dangerous for all levels of swimmers.

Precautionary/preparedness actions...

There is a high risk of rip currents.

Rip currents are life-threatening to anyone entering the surf. If
you become caught in a rip current... Yell for help. Remain
calm... do not exhaust yourself and stay afloat while waiting for
help. If you have to swim out of a rip current... swim parallel
to shore and back toward the beach when possible. Do not attempt
to swim directly against a rip current as you will tire quickly.